sensor_id;sensor_type;location;lat;lon;timestamp;P1;durP1;ratioP1;P2;durP2;ratioP2
7729;SDS011;3908;52.310;7.230;2022-11-15T00:02:24;19.43;;;11.50;;
7729;SDS011;3908;52.310;7.230;2022-11-15T00:05:13;16.93;;;10.40;;
7729;SDS011;3908;52.310;7.230;2022-11-15T00:08:01;21.23;;;11.60;;
7729;SDS011;3908;52.310;7.230;2022-11-15T00:10:54;22.93;;;11.97;;
7729;SDS011;3908;52.310;7.230;2022-11-15T00:13:42;19.57;;;11.60;;
7729;SDS011;3908;52.310;7.230;2022-11-15T00:16:29;19.03;;;12.47;;
7729;SDS011;3908;52.310;7.230;2022-11-15T00:19:16;17.63;;;11.23;;
7729;SDS011;3908;52.310;7.230;2022-11-15T00:22:03;17.67;;;11.50;;
7729;SDS011;3908;52.310;7.230;2022-11-15T00:24:52;18.73;;;11.27;;
7729;SDS011;3908;52.310;7.230;2022-11-15T00:27:39;21.70;;;12.43;;
7729;SDS011;3908;52.310;7.230;2022-11-15T00:30:26;20.10;;;11.83;;
7729;SDS011;3908;52.310;7.230;2022-11-15T00:33:14;23.87;;;12.90;;
7729;SDS011;3908;52.310;7.230;2022-11-15T00:36:01;19.40;;;11.30;;
7729;SDS011;3908;52.310;7.230;2022-11-15T00:38:49;22.37;;;12.60;;
7729;SDS011;3908;52.310;7.230;2022-11-15T00:41:37;23.10;;;13.07;;
7729;SDS011;3908;52.310;7.230;2022-11-15T00:44:24;25.23;;;12.37;;
7729;SDS011;3908;52.310;7.230;2022-11-15T00:47:11;19.80;;;12.27;;
7729;SDS011;3908;52.310;7.230;2022-11-15T00:49:58;21.83;;;12.17;;
7729;SDS011;3908;52.310;7.230;2022-11-15T00:52:45;22.37;;;13.00;;
7729;SDS011;3908;52.310;7.230;2022-11-15T00:55:34;28.77;;;12.97;;
7729;SDS011;3908;52.310;7.230;2022-11-15T00:58:22;30.50;;;12.80;;
7729;SDS011;3908;52.310;7.230;2022-11-15T01:01:10;21.93;;;12.73;;
7729;SDS011;3908;52.310;7.230;2022-11-15T01:03:59;23.00;;;12.20;;
7729;SDS011;3908;52.310;7.230;2022-11-15T01:06:46;22.97;;;11.83;;
7729;SDS011;3908;52.310;7.230;2022-11-15T01:09:33;21.13;;;12.37;;
7729;SDS011;3908;52.310;7.230;2022-11-15T01:12:20;21.77;;;11.67;;
7729;SDS011;3908;52.310;7.230;2022-11-15T01:15:09;22.40;;;11.60;;
7729;SDS011;3908;52.310;7.230;2022-11-15T01:17:56;23.90;;;12.53;;
7729;SDS011;3908;52.310;7.230;2022-11-15T01:20:43;23.70;;;12.83;;
7729;SDS011;3908;52.310;7.230;2022-11-15T01:23:30;23.80;;;13.33;;
7729;SDS011;3908;52.310;7.230;2022-11-15T01:26:17;24.00;;;14.03;;
7729;SDS011;3908;52.310;7.230;2022-11-15T01:29:04;25.47;;;12.70;;
7729;SDS011;3908;52.310;7.230;2022-11-15T01:31:53;20.77;;;12.23;;
7729;SDS011;3908;52.310;7.230;2022-11-15T01:34:40;22.47;;;12.50;;
7729;SDS011;3908;52.310;7.230;2022-11-15T01:37:27;24.00;;;13.90;;
7729;SDS011;3908;52.310;7.230;2022-11-15T01:40:14;25.67;;;12.73;;
7729;SDS011;3908;52.310;7.230;2022-11-15T01:46:12;23.60;;;13.83;;
7729;SDS011;3908;52.310;7.230;2022-11-15T01:49:11;26.30;;;13.70;;
7729;SDS011;3908;52.310;7.230;2022-11-15T01:52:03;24.90;;;13.67;;
7729;SDS011;3908;52.310;7.230;2022-11-15T01:54:55;22.13;;;13.50;;
7729;SDS011;3908;52.310;7.230;2022-11-15T01:57:49;22.17;;;13.53;;
7729;SDS011;3908;52.310;7.230;2022-11-15T02:00:38;23.77;;;13.83;;
7729;SDS011;3908;52.310;7.230;2022-11-15T02:03:34;22.80;;;13.33;;
7729;SDS011;3908;52.310;7.230;2022-11-15T02:06:27;28.43;;;13.00;;
7729;SDS011;3908;52.310;7.230;2022-11-15T02:09:14;24.10;;;13.53;;
7729;SDS011;3908;52.310;7.230;2022-11-15T02:12:01;20.73;;;12.33;;
7729;SDS011;3908;52.310;7.230;2022-11-15T02:14:49;25.57;;;13.20;;
7729;SDS011;3908;52.310;7.230;2022-11-15T02:17:45;22.63;;;13.03;;
7729;SDS011;3908;52.310;7.230;2022-11-15T02:20:45;20.53;;;12.63;;
7729;SDS011;3908;52.310;7.230;2022-11-15T02:30:42;20.30;;;11.93;;
7729;SDS011;3908;52.310;7.230;2022-11-15T02:33:34;23.17;;;12.33;;
7729;SDS011;3908;52.310;7.230;2022-11-15T02:36:29;21.23;;;12.40;;
7729;SDS011;3908;52.310;7.230;2022-11-15T02:39:27;20.33;;;12.07;;
7729;SDS011;3908;52.310;7.230;2022-11-15T02:42:23;17.00;;;11.00;;
7729;SDS011;3908;52.310;7.230;2022-11-15T02:45:30;17.03;;;12.57;;
7729;SDS011;3908;52.310;7.230;2022-11-15T02:48:23;19.73;;;11.57;;
7729;SDS011;3908;52.310;7.230;2022-11-15T02:51:12;19.27;;;12.50;;
7729;SDS011;3908;52.310;7.230;2022-11-15T02:54:00;18.67;;;11.30;;
7729;SDS011;3908;52.310;7.230;2022-11-15T02:56:47;17.97;;;11.30;;
7729;SDS011;3908;52.310;7.230;2022-11-15T02:59:48;20.93;;;12.63;;
7729;SDS011;3908;52.310;7.230;2022-11-15T03:06:19;20.03;;;12.27;;
7729;SDS011;3908;52.310;7.230;2022-11-15T03:09:12;20.33;;;12.20;;
7729;SDS011;3908;52.310;7.230;2022-11-15T03:12:12;18.57;;;11.43;;
7729;SDS011;3908;52.310;7.230;2022-11-15T03:15:09;19.93;;;12.03;;
7729;SDS011;3908;52.310;7.230;2022-11-15T03:18:04;18.27;;;12.00;;
7729;SDS011;3908;52.310;7.230;2022-11-15T03:20:57;22.63;;;11.23;;
7729;SDS011;3908;52.310;7.230;2022-11-15T03:23:48;19.77;;;11.63;;
7729;SDS011;3908;52.310;7.230;2022-11-15T03:26:38;20.80;;;12.67;;
7729;SDS011;3908;52.310;7.230;2022-11-15T03:29:29;17.97;;;12.37;;
7729;SDS011;3908;52.310;7.230;2022-11-15T03:32:20;19.07;;;11.70;;
7729;SDS011;3908;52.310;7.230;2022-11-15T03:35:12;19.40;;;12.00;;
7729;SDS011;3908;52.310;7.230;2022-11-15T03:38:05;19.37;;;11.10;;
7729;SDS011;3908;52.310;7.230;2022-11-15T03:41:03;19.87;;;11.83;;
7729;SDS011;3908;52.310;7.230;2022-11-15T03:43:55;19.80;;;12.30;;
7729;SDS011;3908;52.310;7.230;2022-11-15T03:46:47;18.40;;;11.23;;
7729;SDS011;3908;52.310;7.230;2022-11-15T03:49:42;19.70;;;12.00;;
7729;SDS011;3908;52.310;7.230;2022-11-15T03:52:33;17.23;;;11.47;;
7729;SDS011;3908;52.310;7.230;2022-11-15T03:55:20;21.60;;;11.47;;
7729;SDS011;3908;52.310;7.230;2022-11-15T03:58:09;20.23;;;12.37;;
7729;SDS011;3908;52.310;7.230;2022-11-15T04:00:57;20.80;;;12.63;;
7729;SDS011;3908;52.310;7.230;2022-11-15T04:03:44;18.73;;;11.67;;
7729;SDS011;3908;52.310;7.230;2022-11-15T04:06:31;19.17;;;11.43;;
7729;SDS011;3908;52.310;7.230;2022-11-15T04:09:19;21.50;;;11.70;;
7729;SDS011;3908;52.310;7.230;2022-11-15T04:12:06;19.73;;;11.70;;
7729;SDS011;3908;52.310;7.230;2022-11-15T04:14:54;19.77;;;12.37;;
7729;SDS011;3908;52.310;7.230;2022-11-15T04:17:53;19.20;;;12.03;;
7729;SDS011;3908;52.310;7.230;2022-11-15T04:20:41;18.20;;;11.17;;
7729;SDS011;3908;52.310;7.230;2022-11-15T04:23:46;18.97;;;11.03;;
7729;SDS011;3908;52.310;7.230;2022-11-15T04:26:50;17.13;;;10.47;;
7729;SDS011;3908;52.310;7.230;2022-11-15T04:29:37;17.70;;;11.53;;
7729;SDS011;3908;52.310;7.230;2022-11-15T04:32:25;19.20;;;11.30;;
7729;SDS011;3908;52.310;7.230;2022-11-15T04:35:13;18.97;;;11.67;;
7729;SDS011;3908;52.310;7.230;2022-11-15T04:38:00;16.13;;;10.73;;
7729;SDS011;3908;52.310;7.230;2022-11-15T04:40:48;71.53;;;13.87;;
7729;SDS011;3908;52.310;7.230;2022-11-15T04:43:35;16.70;;;11.23;;
7729;SDS011;3908;52.310;7.230;2022-11-15T04:46:23;16.10;;;10.00;;
7729;SDS011;3908;52.310;7.230;2022-11-15T04:49:12;20.07;;;10.70;;
7729;SDS011;3908;52.310;7.230;2022-11-15T04:51:59;17.30;;;10.30;;
7729;SDS011;3908;52.310;7.230;2022-11-15T04:54:46;19.07;;;10.80;;
7729;SDS011;3908;52.310;7.230;2022-11-15T04:57:33;17.80;;;10.90;;
7729;SDS011;3908;52.310;7.230;2022-11-15T05:00:20;17.50;;;10.10;;
7729;SDS011;3908;52.310;7.230;2022-11-15T05:03:08;15.73;;;10.17;;
7729;SDS011;3908;52.310;7.230;2022-11-15T05:06:14;20.07;;;10.77;;
7729;SDS011;3908;52.310;7.230;2022-11-15T05:09:01;18.27;;;11.10;;
7729;SDS011;3908;52.310;7.230;2022-11-15T05:11:49;17.07;;;10.87;;
7729;SDS011;3908;52.310;7.230;2022-11-15T05:14:36;15.97;;;10.17;;
7729;SDS011;3908;52.310;7.230;2022-11-15T05:17:23;16.27;;;10.37;;
7729;SDS011;3908;52.310;7.230;2022-11-15T05:20:10;15.97;;;10.20;;
7729;SDS011;3908;52.310;7.230;2022-11-15T05:22:59;15.43;;;10.40;;
7729;SDS011;3908;52.310;7.230;2022-11-15T05:25:46;15.90;;;9.83;;
7729;SDS011;3908;52.310;7.230;2022-11-15T05:28:34;17.90;;;10.30;;
7729;SDS011;3908;52.310;7.230;2022-11-15T05:31:21;19.77;;;10.57;;
7729;SDS011;3908;52.310;7.230;2022-11-15T05:34:10;19.83;;;11.40;;
7729;SDS011;3908;52.310;7.230;2022-11-15T05:36:57;18.07;;;9.80;;
7729;SDS011;3908;52.310;7.230;2022-11-15T05:39:46;15.67;;;10.03;;
7729;SDS011;3908;52.310;7.230;2022-11-15T05:42:33;22.37;;;11.73;;
7729;SDS011;3908;52.310;7.230;2022-11-15T05:45:20;16.87;;;11.23;;
7729;SDS011;3908;52.310;7.230;2022-11-15T05:48:07;13.87;;;9.93;;
7729;SDS011;3908;52.310;7.230;2022-11-15T05:50:56;15.27;;;10.87;;
7729;SDS011;3908;52.310;7.230;2022-11-15T05:53:44;17.07;;;10.20;;
7729;SDS011;3908;52.310;7.230;2022-11-15T05:56:33;18.10;;;11.30;;
7729;SDS011;3908;52.310;7.230;2022-11-15T05:59:20;15.37;;;10.33;;
7729;SDS011;3908;52.310;7.230;2022-11-15T06:02:08;21.30;;;10.53;;
7729;SDS011;3908;52.310;7.230;2022-11-15T06:04:55;18.53;;;10.60;;
7729;SDS011;3908;52.310;7.230;2022-11-15T06:07:42;18.57;;;11.00;;
7729;SDS011;3908;52.310;7.230;2022-11-15T06:10:29;15.17;;;9.60;;
7729;SDS011;3908;52.310;7.230;2022-11-15T06:13:17;16.53;;;10.10;;
7729;SDS011;3908;52.310;7.230;2022-11-15T06:16:05;17.63;;;10.83;;
7729;SDS011;3908;52.310;7.230;2022-11-15T06:18:52;16.83;;;10.63;;
7729;SDS011;3908;52.310;7.230;2022-11-15T06:21:39;21.70;;;10.17;;
7729;SDS011;3908;52.310;7.230;2022-11-15T06:24:26;22.33;;;10.30;;
7729;SDS011;3908;52.310;7.230;2022-11-15T06:27:13;14.97;;;10.17;;
7729;SDS011;3908;52.310;7.230;2022-11-15T06:30:02;21.63;;;9.70;;
7729;SDS011;3908;52.310;7.230;2022-11-15T06:32:49;13.77;;;9.67;;
7729;SDS011;3908;52.310;7.230;2022-11-15T06:35:36;13.97;;;9.83;;
7729;SDS011;3908;52.310;7.230;2022-11-15T06:38:23;16.17;;;10.53;;
7729;SDS011;3908;52.310;7.230;2022-11-15T06:41:11;16.43;;;10.17;;
7729;SDS011;3908;52.310;7.230;2022-11-15T06:43:59;16.00;;;10.10;;
7729;SDS011;3908;52.310;7.230;2022-11-15T06:46:47;15.40;;;9.93;;
7729;SDS011;3908;52.310;7.230;2022-11-15T06:49:34;15.23;;;9.90;;
7729;SDS011;3908;52.310;7.230;2022-11-15T06:52:21;20.97;;;9.93;;
7729;SDS011;3908;52.310;7.230;2022-11-15T06:55:08;19.83;;;10.40;;
7729;SDS011;3908;52.310;7.230;2022-11-15T06:57:55;14.87;;;10.60;;
7729;SDS011;3908;52.310;7.230;2022-11-15T07:00:42;13.00;;;9.43;;
7729;SDS011;3908;52.310;7.230;2022-11-15T07:03:31;15.93;;;10.13;;
7729;SDS011;3908;52.310;7.230;2022-11-15T07:06:20;18.47;;;10.67;;
7729;SDS011;3908;52.310;7.230;2022-11-15T07:09:09;18.70;;;10.10;;
7729;SDS011;3908;52.310;7.230;2022-11-15T07:11:56;17.33;;;11.07;;
7729;SDS011;3908;52.310;7.230;2022-11-15T07:14:43;19.40;;;11.23;;
7729;SDS011;3908;52.310;7.230;2022-11-15T07:17:31;16.13;;;10.80;;
7729;SDS011;3908;52.310;7.230;2022-11-15T07:20:20;19.63;;;11.40;;
7729;SDS011;3908;52.310;7.230;2022-11-15T07:23:07;15.83;;;10.57;;
7729;SDS011;3908;52.310;7.230;2022-11-15T07:25:55;18.30;;;10.93;;
7729;SDS011;3908;52.310;7.230;2022-11-15T07:28:43;19.83;;;11.10;;
7729;SDS011;3908;52.310;7.230;2022-11-15T07:31:30;19.03;;;11.37;;
7729;SDS011;3908;52.310;7.230;2022-11-15T07:34:17;22.07;;;12.10;;
7729;SDS011;3908;52.310;7.230;2022-11-15T07:37:05;18.30;;;11.47;;
7729;SDS011;3908;52.310;7.230;2022-11-15T07:39:52;16.13;;;10.17;;
7729;SDS011;3908;52.310;7.230;2022-11-15T07:42:39;23.73;;;11.40;;
7729;SDS011;3908;52.310;7.230;2022-11-15T07:45:42;24.70;;;11.77;;
7729;SDS011;3908;52.310;7.230;2022-11-15T07:48:30;19.17;;;11.27;;
7729;SDS011;3908;52.310;7.230;2022-11-15T07:51:17;17.57;;;11.23;;
7729;SDS011;3908;52.310;7.230;2022-11-15T07:54:06;17.30;;;10.60;;
7729;SDS011;3908;52.310;7.230;2022-11-15T07:56:53;15.27;;;10.40;;
7729;SDS011;3908;52.310;7.230;2022-11-15T07:59:40;15.53;;;10.27;;
7729;SDS011;3908;52.310;7.230;2022-11-15T08:02:27;15.63;;;10.47;;
7729;SDS011;3908;52.310;7.230;2022-11-15T08:05:15;17.90;;;11.77;;
7729;SDS011;3908;52.310;7.230;2022-11-15T08:08:02;15.97;;;10.67;;
7729;SDS011;3908;52.310;7.230;2022-11-15T08:10:51;17.23;;;11.27;;
7729;SDS011;3908;52.310;7.230;2022-11-15T08:13:38;15.97;;;9.67;;
7729;SDS011;3908;52.310;7.230;2022-11-15T08:16:25;16.10;;;10.77;;
7729;SDS011;3908;52.310;7.230;2022-11-15T08:19:12;13.87;;;9.70;;
7729;SDS011;3908;52.310;7.230;2022-11-15T08:21:59;16.17;;;10.63;;
7729;SDS011;3908;52.310;7.230;2022-11-15T08:24:46;18.43;;;11.43;;
7729;SDS011;3908;52.310;7.230;2022-11-15T08:27:35;14.23;;;10.30;;
7729;SDS011;3908;52.310;7.230;2022-11-15T08:30:22;17.57;;;10.90;;
7729;SDS011;3908;52.310;7.230;2022-11-15T08:33:10;16.07;;;10.33;;
7729;SDS011;3908;52.310;7.230;2022-11-15T08:35:59;17.57;;;10.67;;
7729;SDS011;3908;52.310;7.230;2022-11-15T08:38:47;16.67;;;10.43;;
7729;SDS011;3908;52.310;7.230;2022-11-15T08:41:36;16.30;;;10.13;;
7729;SDS011;3908;52.310;7.230;2022-11-15T08:44:25;15.80;;;9.67;;
7729;SDS011;3908;52.310;7.230;2022-11-15T08:47:12;16.97;;;9.83;;
7729;SDS011;3908;52.310;7.230;2022-11-15T08:50:00;16.83;;;10.10;;
7729;SDS011;3908;52.310;7.230;2022-11-15T08:52:47;16.67;;;9.83;;
7729;SDS011;3908;52.310;7.230;2022-11-15T08:55:35;19.10;;;9.30;;
7729;SDS011;3908;52.310;7.230;2022-11-15T08:58:23;13.40;;;9.27;;
7729;SDS011;3908;52.310;7.230;2022-11-15T09:01:16;14.83;;;8.87;;
7729;SDS011;3908;52.310;7.230;2022-11-15T09:04:04;13.20;;;8.17;;
7729;SDS011;3908;52.310;7.230;2022-11-15T09:06:51;10.83;;;8.10;;
7729;SDS011;3908;52.310;7.230;2022-11-15T09:09:38;14.30;;;8.13;;
7729;SDS011;3908;52.310;7.230;2022-11-15T09:12:26;11.03;;;8.40;;
7729;SDS011;3908;52.310;7.230;2022-11-15T09:15:13;14.37;;;8.57;;
7729;SDS011;3908;52.310;7.230;2022-11-15T09:18:02;14.17;;;7.73;;
7729;SDS011;3908;52.310;7.230;2022-11-15T09:20:49;11.23;;;8.13;;
7729;SDS011;3908;52.310;7.230;2022-11-15T09:23:36;11.93;;;7.53;;
7729;SDS011;3908;52.310;7.230;2022-11-15T09:26:23;10.13;;;7.40;;
7729;SDS011;3908;52.310;7.230;2022-11-15T09:29:11;10.43;;;7.33;;
7729;SDS011;3908;52.310;7.230;2022-11-15T09:31:58;10.97;;;7.23;;
7729;SDS011;3908;52.310;7.230;2022-11-15T09:34:47;10.23;;;7.53;;
7729;SDS011;3908;52.310;7.230;2022-11-15T09:37:35;11.80;;;7.40;;
7729;SDS011;3908;52.310;7.230;2022-11-15T09:40:23;10.13;;;6.67;;
7729;SDS011;3908;52.310;7.230;2022-11-15T09:46:20;7.53;;;5.97;;
7729;SDS011;3908;52.310;7.230;2022-11-15T09:49:13;8.93;;;6.37;;
7729;SDS011;3908;52.310;7.230;2022-11-15T09:52:03;8.13;;;5.97;;
7729;SDS011;3908;52.310;7.230;2022-11-15T09:54:51;10.00;;;5.80;;
7729;SDS011;3908;52.310;7.230;2022-11-15T09:57:41;6.77;;;5.63;;
7729;SDS011;3908;52.310;7.230;2022-11-15T10:00:37;5.97;;;5.13;;
7729;SDS011;3908;52.310;7.230;2022-11-15T10:03:27;7.83;;;4.87;;
7729;SDS011;3908;52.310;7.230;2022-11-15T10:06:21;5.50;;;5.00;;
7729;SDS011;3908;52.310;7.230;2022-11-15T10:09:14;5.37;;;4.40;;
7729;SDS011;3908;52.310;7.230;2022-11-15T10:12:04;4.77;;;3.80;;
7729;SDS011;3908;52.310;7.230;2022-11-15T10:14:55;4.20;;;3.60;;
7729;SDS011;3908;52.310;7.230;2022-11-15T10:18:02;7.90;;;4.00;;
7729;SDS011;3908;52.310;7.230;2022-11-15T10:20:55;4.87;;;2.97;;
7729;SDS011;3908;52.310;7.230;2022-11-15T10:23:45;5.70;;;3.03;;
7729;SDS011;3908;52.310;7.230;2022-11-15T10:26:35;4.53;;;2.90;;
7729;SDS011;3908;52.310;7.230;2022-11-15T10:29:23;4.53;;;2.20;;
7729;SDS011;3908;52.310;7.230;2022-11-15T10:32:11;2.50;;;2.20;;
7729;SDS011;3908;52.310;7.230;2022-11-15T10:34:59;2.20;;;2.00;;
7729;SDS011;3908;52.310;7.230;2022-11-15T10:38:04;1.90;;;1.70;;
7729;SDS011;3908;52.310;7.230;2022-11-15T10:40:53;3.20;;;2.00;;
7729;SDS011;3908;52.310;7.230;2022-11-15T10:44:03;4.03;;;2.13;;
7729;SDS011;3908;52.310;7.230;2022-11-15T10:47:05;3.30;;;1.80;;
7729;SDS011;3908;52.310;7.230;2022-11-15T10:50:07;2.63;;;1.67;;
7729;SDS011;3908;52.310;7.230;2022-11-15T10:53:15;1.80;;;1.70;;
7729;SDS011;3908;52.310;7.230;2022-11-15T10:56:08;1.90;;;1.57;;
7729;SDS011;3908;52.310;7.230;2022-11-15T10:59:01;2.43;;;1.70;;
7729;SDS011;3908;52.310;7.230;2022-11-15T11:01:49;3.87;;;1.57;;
7729;SDS011;3908;52.310;7.230;2022-11-15T11:04:48;3.13;;;1.67;;
7729;SDS011;3908;52.310;7.230;2022-11-15T11:07:36;1.90;;;1.33;;
7729;SDS011;3908;52.310;7.230;2022-11-15T11:10:23;3.37;;;1.60;;
7729;SDS011;3908;52.310;7.230;2022-11-15T11:13:14;2.20;;;1.97;;
7729;SDS011;3908;52.310;7.230;2022-11-15T11:16:18;1.77;;;1.50;;
7729;SDS011;3908;52.310;7.230;2022-11-15T11:19:25;1.87;;;1.47;;
7729;SDS011;3908;52.310;7.230;2022-11-15T11:22:26;1.30;;;1.20;;
7729;SDS011;3908;52.310;7.230;2022-11-15T11:25:22;2.00;;;1.70;;
7729;SDS011;3908;52.310;7.230;2022-11-15T11:28:23;1.53;;;1.23;;
7729;SDS011;3908;52.310;7.230;2022-11-15T11:31:23;2.13;;;1.40;;
7729;SDS011;3908;52.310;7.230;2022-11-15T11:34:19;5.13;;;1.47;;
7729;SDS011;3908;52.310;7.230;2022-11-15T11:37:21;1.40;;;1.30;;
7729;SDS011;3908;52.310;7.230;2022-11-15T11:40:19;3.33;;;1.60;;
7729;SDS011;3908;52.310;7.230;2022-11-15T11:43:16;1.53;;;1.30;;
7729;SDS011;3908;52.310;7.230;2022-11-15T11:46:18;5.77;;;1.80;;
7729;SDS011;3908;52.310;7.230;2022-11-15T11:49:20;2.23;;;1.90;;
7729;SDS011;3908;52.310;7.230;2022-11-15T11:52:15;4.03;;;2.20;;
7729;SDS011;3908;52.310;7.230;2022-11-15T11:55:12;2.07;;;1.87;;
7729;SDS011;3908;52.310;7.230;2022-11-15T11:58:04;6.13;;;2.17;;
7729;SDS011;3908;52.310;7.230;2022-11-15T12:00:59;4.17;;;2.63;;
7729;SDS011;3908;52.310;7.230;2022-11-15T12:03:59;3.40;;;3.00;;
7729;SDS011;3908;52.310;7.230;2022-11-15T12:06:52;3.43;;;2.80;;
7729;SDS011;3908;52.310;7.230;2022-11-15T12:09:45;3.13;;;2.50;;
7729;SDS011;3908;52.310;7.230;2022-11-15T12:12:41;6.53;;;2.60;;
7729;SDS011;3908;52.310;7.230;2022-11-15T12:15:35;3.07;;;2.50;;
7729;SDS011;3908;52.310;7.230;2022-11-15T12:18:26;4.27;;;2.47;;
7729;SDS011;3908;52.310;7.230;2022-11-15T12:21:18;4.20;;;2.60;;
7729;SDS011;3908;52.310;7.230;2022-11-15T12:24:13;4.17;;;2.37;;
7729;SDS011;3908;52.310;7.230;2022-11-15T12:27:05;3.27;;;1.90;;
7729;SDS011;3908;52.310;7.230;2022-11-15T12:30:02;2.30;;;2.10;;
7729;SDS011;3908;52.310;7.230;2022-11-15T12:32:57;3.13;;;2.53;;
7729;SDS011;3908;52.310;7.230;2022-11-15T12:35:56;1.93;;;1.73;;
7729;SDS011;3908;52.310;7.230;2022-11-15T12:38:54;2.67;;;1.70;;
7729;SDS011;3908;52.310;7.230;2022-11-15T12:41:44;3.80;;;2.07;;
7729;SDS011;3908;52.310;7.230;2022-11-15T12:45:24;2.20;;;2.00;;
7729;SDS011;3908;52.310;7.230;2022-11-15T12:54:55;3.70;;;1.57;;
7729;SDS011;3908;52.310;7.230;2022-11-15T12:57:43;2.97;;;1.63;;
7729;SDS011;3908;52.310;7.230;2022-11-15T13:03:27;2.53;;;1.57;;
7729;SDS011;3908;52.310;7.230;2022-11-15T13:12:57;2.60;;;1.73;;
7729;SDS011;3908;52.310;7.230;2022-11-15T13:16:01;2.50;;;1.53;;
7729;SDS011;3908;52.310;7.230;2022-11-15T13:18:52;2.30;;;1.20;;
7729;SDS011;3908;52.310;7.230;2022-11-15T13:21:47;1.83;;;1.27;;
7729;SDS011;3908;52.310;7.230;2022-11-15T13:24:52;3.97;;;1.20;;
7729;SDS011;3908;52.310;7.230;2022-11-15T13:27:40;1.63;;;1.00;;
7729;SDS011;3908;52.310;7.230;2022-11-15T13:30:30;2.97;;;1.30;;
7729;SDS011;3908;52.310;7.230;2022-11-15T13:33:19;1.80;;;1.20;;
7729;SDS011;3908;52.310;7.230;2022-11-15T13:36:08;1.33;;;1.00;;
7729;SDS011;3908;52.310;7.230;2022-11-15T13:39:02;2.57;;;1.20;;
7729;SDS011;3908;52.310;7.230;2022-11-15T13:41:51;3.07;;;1.23;;
7729;SDS011;3908;52.310;7.230;2022-11-15T13:44:38;1.70;;;1.20;;
7729;SDS011;3908;52.310;7.230;2022-11-15T13:47:27;1.00;;;1.00;;
7729;SDS011;3908;52.310;7.230;2022-11-15T13:50:16;1.23;;;1.07;;
7729;SDS011;3908;52.310;7.230;2022-11-15T13:53:06;1.20;;;1.10;;
7729;SDS011;3908;52.310;7.230;2022-11-15T13:55:57;1.23;;;1.10;;
7729;SDS011;3908;52.310;7.230;2022-11-15T13:58:45;1.53;;;0.97;;
7729;SDS011;3908;52.310;7.230;2022-11-15T14:01:42;1.30;;;1.20;;
7729;SDS011;3908;52.310;7.230;2022-11-15T14:04:31;1.40;;;1.30;;
7729;SDS011;3908;52.310;7.230;2022-11-15T14:07:20;1.70;;;1.10;;
7729;SDS011;3908;52.310;7.230;2022-11-15T14:10:29;1.30;;;1.20;;
7729;SDS011;3908;52.310;7.230;2022-11-15T14:13:26;2.03;;;1.10;;
7729;SDS011;3908;52.310;7.230;2022-11-15T14:16:15;1.47;;;1.10;;
7729;SDS011;3908;52.310;7.230;2022-11-15T14:19:04;3.37;;;1.47;;
7729;SDS011;3908;52.310;7.230;2022-11-15T14:22:14;6.97;;;1.43;;
7729;SDS011;3908;52.310;7.230;2022-11-15T14:31:21;2.03;;;1.23;;
7729;SDS011;3908;52.310;7.230;2022-11-15T14:34:11;1.27;;;1.10;;
7729;SDS011;3908;52.310;7.230;2022-11-15T14:37:02;1.43;;;1.30;;
7729;SDS011;3908;52.310;7.230;2022-11-15T14:39:54;1.67;;;1.50;;
7729;SDS011;3908;52.310;7.230;2022-11-15T14:42:42;1.70;;;1.40;;
7729;SDS011;3908;52.310;7.230;2022-11-15T14:45:32;4.70;;;1.57;;
7729;SDS011;3908;52.310;7.230;2022-11-15T14:48:19;1.93;;;1.40;;
7729;SDS011;3908;52.310;7.230;2022-11-15T14:51:11;4.03;;;1.60;;
7729;SDS011;3908;52.310;7.230;2022-11-15T14:53:59;2.97;;;1.60;;
7729;SDS011;3908;52.310;7.230;2022-11-15T15:07:31;1.73;;;1.40;;
7729;SDS011;3908;52.310;7.230;2022-11-15T15:10:19;2.33;;;1.40;;
7729;SDS011;3908;52.310;7.230;2022-11-15T15:13:08;3.43;;;1.60;;
7729;SDS011;3908;52.310;7.230;2022-11-15T15:16:02;3.80;;;1.70;;
7729;SDS011;3908;52.310;7.230;2022-11-15T15:18:49;2.07;;;1.50;;
7729;SDS011;3908;52.310;7.230;2022-11-15T15:21:36;1.80;;;1.30;;
7729;SDS011;3908;52.310;7.230;2022-11-15T15:24:25;2.00;;;1.60;;
7729;SDS011;3908;52.310;7.230;2022-11-15T15:27:13;1.77;;;1.27;;
7729;SDS011;3908;52.310;7.230;2022-11-15T15:30:00;3.37;;;1.40;;
7729;SDS011;3908;52.310;7.230;2022-11-15T15:32:47;2.43;;;1.50;;
7729;SDS011;3908;52.310;7.230;2022-11-15T15:35:34;6.63;;;1.33;;
7729;SDS011;3908;52.310;7.230;2022-11-15T15:38:21;4.27;;;1.57;;
7729;SDS011;3908;52.310;7.230;2022-11-15T15:41:11;1.83;;;1.27;;
7729;SDS011;3908;52.310;7.230;2022-11-15T15:43:59;3.20;;;1.40;;
7729;SDS011;3908;52.310;7.230;2022-11-15T15:46:46;4.13;;;1.70;;
7729;SDS011;3908;52.310;7.230;2022-11-15T15:49:33;2.00;;;1.57;;
7729;SDS011;3908;52.310;7.230;2022-11-15T15:52:20;1.80;;;1.27;;
7729;SDS011;3908;52.310;7.230;2022-11-15T15:55:07;2.07;;;1.43;;
7729;SDS011;3908;52.310;7.230;2022-11-15T15:57:56;1.87;;;1.60;;
7729;SDS011;3908;52.310;7.230;2022-11-15T16:00:44;4.37;;;2.37;;
7729;SDS011;3908;52.310;7.230;2022-11-15T16:03:31;1.83;;;1.40;;
7729;SDS011;3908;52.310;7.230;2022-11-15T16:06:32;4.20;;;1.77;;
7729;SDS011;3908;52.310;7.230;2022-11-15T16:09:22;1.83;;;1.50;;
7729;SDS011;3908;52.310;7.230;2022-11-15T16:12:30;5.13;;;1.60;;
7729;SDS011;3908;52.310;7.230;2022-11-15T16:15:20;1.50;;;1.27;;
7729;SDS011;3908;52.310;7.230;2022-11-15T16:18:08;3.03;;;1.87;;
7729;SDS011;3908;52.310;7.230;2022-11-15T16:21:01;5.37;;;1.73;;
7729;SDS011;3908;52.310;7.230;2022-11-15T16:23:48;1.80;;;1.50;;
7729;SDS011;3908;52.310;7.230;2022-11-15T16:26:35;2.37;;;1.90;;
7729;SDS011;3908;52.310;7.230;2022-11-15T16:29:24;1.53;;;1.37;;
7729;SDS011;3908;52.310;7.230;2022-11-15T16:32:13;16.17;;;2.00;;
7729;SDS011;3908;52.310;7.230;2022-11-15T16:35:01;4.03;;;1.77;;
7729;SDS011;3908;52.310;7.230;2022-11-15T16:37:48;3.37;;;1.80;;
7729;SDS011;3908;52.310;7.230;2022-11-15T16:40:35;3.63;;;1.40;;
7729;SDS011;3908;52.310;7.230;2022-11-15T16:43:23;2.37;;;1.77;;
7729;SDS011;3908;52.310;7.230;2022-11-15T16:46:12;1.70;;;1.50;;
7729;SDS011;3908;52.310;7.230;2022-11-15T16:49:03;2.63;;;1.60;;
7729;SDS011;3908;52.310;7.230;2022-11-15T16:51:50;4.07;;;1.80;;
7729;SDS011;3908;52.310;7.230;2022-11-15T16:54:39;3.43;;;1.50;;
7729;SDS011;3908;52.310;7.230;2022-11-15T16:57:27;3.57;;;1.60;;
7729;SDS011;3908;52.310;7.230;2022-11-15T17:00:14;3.50;;;1.67;;
7729;SDS011;3908;52.310;7.230;2022-11-15T17:03:03;3.13;;;1.70;;
7729;SDS011;3908;52.310;7.230;2022-11-15T17:05:52;2.63;;;1.70;;
7729;SDS011;3908;52.310;7.230;2022-11-15T17:08:43;3.07;;;1.70;;
7729;SDS011;3908;52.310;7.230;2022-11-15T17:11:30;3.93;;;2.10;;
7729;SDS011;3908;52.310;7.230;2022-11-15T17:14:17;4.07;;;2.00;;
7729;SDS011;3908;52.310;7.230;2022-11-15T17:17:05;2.63;;;1.80;;
7729;SDS011;3908;52.310;7.230;2022-11-15T17:19:52;2.50;;;1.70;;
7729;SDS011;3908;52.310;7.230;2022-11-15T17:22:41;4.77;;;2.03;;
7729;SDS011;3908;52.310;7.230;2022-11-15T17:25:28;3.47;;;1.70;;
7729;SDS011;3908;52.310;7.230;2022-11-15T17:28:15;5.37;;;2.43;;
7729;SDS011;3908;52.310;7.230;2022-11-15T17:31:04;8.77;;;2.00;;
7729;SDS011;3908;52.310;7.230;2022-11-15T17:33:53;4.10;;;2.00;;
7729;SDS011;3908;52.310;7.230;2022-11-15T17:36:40;3.63;;;2.03;;
7729;SDS011;3908;52.310;7.230;2022-11-15T17:39:28;3.63;;;1.70;;
7729;SDS011;3908;52.310;7.230;2022-11-15T17:42:16;3.37;;;1.83;;
7729;SDS011;3908;52.310;7.230;2022-11-15T17:45:03;4.60;;;2.47;;
7729;SDS011;3908;52.310;7.230;2022-11-15T17:47:51;3.97;;;1.87;;
7729;SDS011;3908;52.310;7.230;2022-11-15T17:50:38;7.33;;;2.20;;
7729;SDS011;3908;52.310;7.230;2022-11-15T17:53:25;4.67;;;2.23;;
7729;SDS011;3908;52.310;7.230;2022-11-15T17:56:15;3.93;;;2.10;;
7729;SDS011;3908;52.310;7.230;2022-11-15T17:59:03;4.07;;;2.27;;
7729;SDS011;3908;52.310;7.230;2022-11-15T18:01:50;3.63;;;2.20;;
7729;SDS011;3908;52.310;7.230;2022-11-15T18:04:38;4.80;;;2.23;;
7729;SDS011;3908;52.310;7.230;2022-11-15T18:07:25;5.63;;;2.33;;
7729;SDS011;3908;52.310;7.230;2022-11-15T18:10:12;4.43;;;2.30;;
7729;SDS011;3908;52.310;7.230;2022-11-15T18:13:01;5.43;;;2.30;;